sensor_id;sensor_type;location;lat;lon;timestamp;P1;durP1;ratioP1;P2;durP2;ratioP2
20026;SDS011;10174;42.688;23.344;2023-05-23T00:02:03;39.22;;;22.30;;
20026;SDS011;10174;42.688;23.344;2023-05-23T00:04:32;41.03;;;22.08;;
20026;SDS011;10174;42.688;23.344;2023-05-23T00:06:57;36.97;;;20.83;;
20026;SDS011;10174;42.688;23.344;2023-05-23T00:09:23;35.58;;;20.67;;
20026;SDS011;10174;42.688;23.344;2023-05-23T00:11:48;38.80;;;22.33;;
20026;SDS011;10174;42.688;23.344;2023-05-23T00:14:14;38.83;;;22.98;;
20026;SDS011;10174;42.688;23.344;2023-05-23T00:16:40;36.67;;;21.85;;
20026;SDS011;10174;42.688;23.344;2023-05-23T00:19:06;34.55;;;21.65;;
20026;SDS011;10174;42.688;23.344;2023-05-23T00:21:32;33.90;;;21.25;;
20026;SDS011;10174;42.688;23.344;2023-05-23T00:23:58;35.92;;;22.33;;
20026;SDS011;10174;42.688;23.344;2023-05-23T00:26:24;36.45;;;21.85;;
20026;SDS011;10174;42.688;23.344;2023-05-23T00:28:49;43.28;;;22.50;;
20026;SDS011;10174;42.688;23.344;2023-05-23T00:31:15;38.35;;;22.33;;
20026;SDS011;10174;42.688;23.344;2023-05-23T00:33:41;41.85;;;23.10;;
20026;SDS011;10174;42.688;23.344;2023-05-23T00:36:06;40.88;;;23.50;;
20026;SDS011;10174;42.688;23.344;2023-05-23T00:38:33;43.33;;;24.45;;
20026;SDS011;10174;42.688;23.344;2023-05-23T00:40:58;54.17;;;25.10;;
20026;SDS011;10174;42.688;23.344;2023-05-23T00:43:24;38.65;;;23.08;;
20026;SDS011;10174;42.688;23.344;2023-05-23T00:45:49;42.70;;;24.05;;
20026;SDS011;10174;42.688;23.344;2023-05-23T00:48:15;40.53;;;23.35;;
20026;SDS011;10174;42.688;23.344;2023-05-23T00:50:41;36.95;;;21.83;;
20026;SDS011;10174;42.688;23.344;2023-05-23T00:53:07;36.30;;;21.15;;
20026;SDS011;10174;42.688;23.344;2023-05-23T00:55:32;41.58;;;22.10;;
20026;SDS011;10174;42.688;23.344;2023-05-23T00:57:58;36.92;;;22.08;;
20026;SDS011;10174;42.688;23.344;2023-05-23T01:00:24;45.55;;;22.60;;
20026;SDS011;10174;42.688;23.344;2023-05-23T01:02:50;42.25;;;22.35;;
20026;SDS011;10174;42.688;23.344;2023-05-23T01:05:17;40.90;;;22.45;;
20026;SDS011;10174;42.688;23.344;2023-05-23T01:07:44;43.40;;;23.17;;
20026;SDS011;10174;42.688;23.344;2023-05-23T01:10:11;40.60;;;23.05;;
20026;SDS011;10174;42.688;23.344;2023-05-23T01:15:22;40.38;;;22.80;;
20026;SDS011;10174;42.688;23.344;2023-05-23T01:20:37;40.15;;;21.83;;
20026;SDS011;10174;42.688;23.344;2023-05-23T01:28:30;40.85;;;22.90;;
20026;SDS011;10174;42.688;23.344;2023-05-23T01:31:01;39.63;;;23.02;;
20026;SDS011;10174;42.688;23.344;2023-05-23T01:33:30;42.58;;;23.58;;
20026;SDS011;10174;42.688;23.344;2023-05-23T01:35:57;45.50;;;24.60;;
20026;SDS011;10174;42.688;23.344;2023-05-23T01:38:26;48.28;;;23.75;;
20026;SDS011;10174;42.688;23.344;2023-05-23T01:40:52;45.25;;;23.55;;
20026;SDS011;10174;42.688;23.344;2023-05-23T01:43:18;38.88;;;22.40;;
20026;SDS011;10174;42.688;23.344;2023-05-23T01:45:44;38.30;;;21.50;;
20026;SDS011;10174;42.688;23.344;2023-05-23T01:48:10;39.80;;;21.92;;
20026;SDS011;10174;42.688;23.344;2023-05-23T01:50:37;41.60;;;21.83;;
20026;SDS011;10174;42.688;23.344;2023-05-23T01:53:04;42.83;;;20.83;;
20026;SDS011;10174;42.688;23.344;2023-05-23T01:55:29;37.85;;;21.38;;
20026;SDS011;10174;42.688;23.344;2023-05-23T01:57:55;40.78;;;21.77;;
20026;SDS011;10174;42.688;23.344;2023-05-23T02:00:21;47.05;;;23.30;;
20026;SDS011;10174;42.688;23.344;2023-05-23T02:02:47;41.67;;;23.65;;
20026;SDS011;10174;42.688;23.344;2023-05-23T02:05:12;46.78;;;25.42;;
20026;SDS011;10174;42.688;23.344;2023-05-23T02:07:38;43.33;;;25.02;;
20026;SDS011;10174;42.688;23.344;2023-05-23T02:10:03;48.72;;;27.02;;
20026;SDS011;10174;42.688;23.344;2023-05-23T02:12:31;57.25;;;27.23;;
20026;SDS011;10174;42.688;23.344;2023-05-23T02:14:57;56.75;;;26.27;;
20026;SDS011;10174;42.688;23.344;2023-05-23T02:17:22;54.92;;;27.38;;
20026;SDS011;10174;42.688;23.344;2023-05-23T02:19:48;56.95;;;27.02;;
20026;SDS011;10174;42.688;23.344;2023-05-23T02:22:13;51.42;;;26.73;;
20026;SDS011;10174;42.688;23.344;2023-05-23T02:24:39;52.35;;;27.63;;
20026;SDS011;10174;42.688;23.344;2023-05-23T02:27:04;60.58;;;27.77;;
20026;SDS011;10174;42.688;23.344;2023-05-23T02:29:30;56.40;;;28.95;;
20026;SDS011;10174;42.688;23.344;2023-05-23T02:31:56;58.38;;;29.63;;
20026;SDS011;10174;42.688;23.344;2023-05-23T02:34:21;58.35;;;30.92;;
20026;SDS011;10174;42.688;23.344;2023-05-23T02:36:47;64.25;;;31.65;;
20026;SDS011;10174;42.688;23.344;2023-05-23T02:39:12;65.90;;;33.75;;
20026;SDS011;10174;42.688;23.344;2023-05-23T02:41:37;71.68;;;33.58;;
20026;SDS011;10174;42.688;23.344;2023-05-23T02:44:03;70.05;;;33.88;;
20026;SDS011;10174;42.688;23.344;2023-05-23T02:46:28;62.13;;;32.97;;
20026;SDS011;10174;42.688;23.344;2023-05-23T02:48:53;72.25;;;36.08;;
20026;SDS011;10174;42.688;23.344;2023-05-23T02:51:19;74.30;;;35.53;;
20026;SDS011;10174;42.688;23.344;2023-05-23T02:53:45;76.18;;;35.50;;
20026;SDS011;10174;42.688;23.344;2023-05-23T02:56:10;79.78;;;35.05;;
20026;SDS011;10174;42.688;23.344;2023-05-23T02:58:37;73.10;;;35.38;;
20026;SDS011;10174;42.688;23.344;2023-05-23T03:01:04;72.50;;;35.40;;
20026;SDS011;10174;42.688;23.344;2023-05-23T03:03:29;71.55;;;36.28;;
20026;SDS011;10174;42.688;23.344;2023-05-23T03:05:56;54.25;;;30.30;;
20026;SDS011;10174;42.688;23.344;2023-05-23T03:08:22;55.15;;;29.60;;
20026;SDS011;10174;42.688;23.344;2023-05-23T03:10:48;51.10;;;28.30;;
20026;SDS011;10174;42.688;23.344;2023-05-23T03:13:13;56.45;;;29.02;;
20026;SDS011;10174;42.688;23.344;2023-05-23T03:15:38;53.38;;;29.90;;
20026;SDS011;10174;42.688;23.344;2023-05-23T03:18:04;47.72;;;27.65;;
20026;SDS011;10174;42.688;23.344;2023-05-23T03:20:29;55.17;;;29.45;;
20026;SDS011;10174;42.688;23.344;2023-05-23T03:22:55;51.10;;;28.63;;
20026;SDS011;10174;42.688;23.344;2023-05-23T03:25:20;55.20;;;28.80;;
20026;SDS011;10174;42.688;23.344;2023-05-23T03:27:45;60.40;;;31.25;;
20026;SDS011;10174;42.688;23.344;2023-05-23T03:30:11;69.50;;;34.45;;
20026;SDS011;10174;42.688;23.344;2023-05-23T03:32:37;65.45;;;34.22;;
20026;SDS011;10174;42.688;23.344;2023-05-23T03:35:02;81.25;;;37.65;;
20026;SDS011;10174;42.688;23.344;2023-05-23T03:37:27;89.43;;;40.33;;
20026;SDS011;10174;42.688;23.344;2023-05-23T03:39:53;99.72;;;42.88;;
20026;SDS011;10174;42.688;23.344;2023-05-23T03:42:18;97.20;;;43.92;;
20026;SDS011;10174;42.688;23.344;2023-05-23T03:44:44;111.18;;;46.40;;
20026;SDS011;10174;42.688;23.344;2023-05-23T03:47:09;106.53;;;46.92;;
20026;SDS011;10174;42.688;23.344;2023-05-23T03:49:34;112.05;;;48.45;;
20026;SDS011;10174;42.688;23.344;2023-05-23T03:52:00;109.65;;;46.75;;
20026;SDS011;10174;42.688;23.344;2023-05-23T03:54:25;105.22;;;44.97;;
20026;SDS011;10174;42.688;23.344;2023-05-23T03:56:50;125.47;;;48.45;;
20026;SDS011;10174;42.688;23.344;2023-05-23T03:59:16;112.45;;;48.08;;
20026;SDS011;10174;42.688;23.344;2023-05-23T04:01:42;117.95;;;49.75;;
20026;SDS011;10174;42.688;23.344;2023-05-23T04:04:07;118.35;;;45.88;;
20026;SDS011;10174;42.688;23.344;2023-05-23T04:06:33;104.50;;;44.25;;
20026;SDS011;10174;42.688;23.344;2023-05-23T04:08:58;103.20;;;47.33;;
20026;SDS011;10174;42.688;23.344;2023-05-23T04:11:23;106.00;;;44.85;;
20026;SDS011;10174;42.688;23.344;2023-05-23T04:13:49;96.35;;;44.53;;
20026;SDS011;10174;42.688;23.344;2023-05-23T04:16:16;105.93;;;44.08;;
20026;SDS011;10174;42.688;23.344;2023-05-23T04:18:41;93.20;;;40.53;;
20026;SDS011;10174;42.688;23.344;2023-05-23T04:21:07;94.93;;;43.22;;
20026;SDS011;10174;42.688;23.344;2023-05-23T04:23:32;99.00;;;42.28;;
20026;SDS011;10174;42.688;23.344;2023-05-23T04:25:58;99.70;;;42.38;;
20026;SDS011;10174;42.688;23.344;2023-05-23T04:28:25;95.95;;;43.65;;
20026;SDS011;10174;42.688;23.344;2023-05-23T04:30:51;95.78;;;42.20;;
20026;SDS011;10174;42.688;23.344;2023-05-23T04:33:17;98.90;;;42.50;;
20026;SDS011;10174;42.688;23.344;2023-05-23T04:35:43;102.07;;;45.33;;
20026;SDS011;10174;42.688;23.344;2023-05-23T04:38:08;114.03;;;43.08;;
20026;SDS011;10174;42.688;23.344;2023-05-23T04:40:34;107.05;;;41.92;;
20026;SDS011;10174;42.688;23.344;2023-05-23T04:42:59;105.35;;;42.20;;
20026;SDS011;10174;42.688;23.344;2023-05-23T04:45:25;102.88;;;44.47;;
20026;SDS011;10174;42.688;23.344;2023-05-23T04:47:50;118.03;;;44.13;;
20026;SDS011;10174;42.688;23.344;2023-05-23T04:50:18;110.38;;;41.92;;
20026;SDS011;10174;42.688;23.344;2023-05-23T04:52:46;100.50;;;40.63;;
20026;SDS011;10174;42.688;23.344;2023-05-23T04:55:11;101.47;;;41.38;;
20026;SDS011;10174;42.688;23.344;2023-05-23T04:57:36;98.43;;;37.78;;
20026;SDS011;10174;42.688;23.344;2023-05-23T05:00:03;99.07;;;38.65;;
20026;SDS011;10174;42.688;23.344;2023-05-23T05:02:34;113.72;;;41.42;;
20026;SDS011;10174;42.688;23.344;2023-05-23T05:05:00;157.45;;;68.57;;
20026;SDS011;10174;42.688;23.344;2023-05-23T05:07:26;128.65;;;45.47;;
20026;SDS011;10174;42.688;23.344;2023-05-23T05:09:53;117.25;;;42.95;;
20026;SDS011;10174;42.688;23.344;2023-05-23T05:12:18;110.40;;;41.90;;
20026;SDS011;10174;42.688;23.344;2023-05-23T05:14:44;110.05;;;39.10;;
20026;SDS011;10174;42.688;23.344;2023-05-23T05:17:09;102.20;;;39.72;;
20026;SDS011;10174;42.688;23.344;2023-05-23T05:19:35;99.57;;;38.78;;
20026;SDS011;10174;42.688;23.344;2023-05-23T05:22:00;103.70;;;39.03;;
20026;SDS011;10174;42.688;23.344;2023-05-23T05:24:26;100.25;;;37.25;;
20026;SDS011;10174;42.688;23.344;2023-05-23T05:26:51;99.30;;;40.65;;
20026;SDS011;10174;42.688;23.344;2023-05-23T05:29:18;104.88;;;40.85;;
20026;SDS011;10174;42.688;23.344;2023-05-23T05:31:43;97.50;;;40.17;;
20026;SDS011;10174;42.688;23.344;2023-05-23T05:34:09;112.57;;;42.13;;
20026;SDS011;10174;42.688;23.344;2023-05-23T05:36:35;92.53;;;35.88;;
20026;SDS011;10174;42.688;23.344;2023-05-23T05:39:00;92.82;;;37.08;;
20026;SDS011;10174;42.688;23.344;2023-05-23T05:41:26;94.50;;;38.78;;
20026;SDS011;10174;42.688;23.344;2023-05-23T05:43:51;86.75;;;37.85;;
20026;SDS011;10174;42.688;23.344;2023-05-23T05:46:16;89.97;;;37.85;;
20026;SDS011;10174;42.688;23.344;2023-05-23T05:48:42;78.72;;;34.92;;
20026;SDS011;10174;42.688;23.344;2023-05-23T05:51:07;81.93;;;35.00;;
20026;SDS011;10174;42.688;23.344;2023-05-23T05:53:33;74.65;;;32.88;;
20026;SDS011;10174;42.688;23.344;2023-05-23T05:55:58;80.00;;;33.47;;
20026;SDS011;10174;42.688;23.344;2023-05-23T05:58:24;69.13;;;32.03;;
20026;SDS011;10174;42.688;23.344;2023-05-23T06:00:49;81.93;;;33.38;;
20026;SDS011;10174;42.688;23.344;2023-05-23T06:03:15;65.25;;;31.08;;
20026;SDS011;10174;42.688;23.344;2023-05-23T06:05:40;56.75;;;28.77;;
20026;SDS011;10174;42.688;23.344;2023-05-23T06:08:06;69.90;;;30.60;;
20026;SDS011;10174;42.688;23.344;2023-05-23T06:10:31;66.15;;;33.50;;
20026;SDS011;10174;42.688;23.344;2023-05-23T06:12:57;72.18;;;32.28;;
20026;SDS011;10174;42.688;23.344;2023-05-23T06:15:23;66.05;;;31.55;;
20026;SDS011;10174;42.688;23.344;2023-05-23T06:17:49;70.32;;;33.65;;
20026;SDS011;10174;42.688;23.344;2023-05-23T06:20:15;78.50;;;35.85;;
20026;SDS011;10174;42.688;23.344;2023-05-23T06:22:40;70.72;;;33.15;;
20026;SDS011;10174;42.688;23.344;2023-05-23T06:25:06;68.10;;;32.63;;
20026;SDS011;10174;42.688;23.344;2023-05-23T06:27:32;67.65;;;33.55;;
20026;SDS011;10174;42.688;23.344;2023-05-23T06:29:57;72.32;;;33.53;;
20026;SDS011;10174;42.688;23.344;2023-05-23T06:32:23;68.35;;;33.63;;
20026;SDS011;10174;42.688;23.344;2023-05-23T06:34:48;77.45;;;36.38;;
20026;SDS011;10174;42.688;23.344;2023-05-23T06:37:13;70.82;;;34.38;;
20026;SDS011;10174;42.688;23.344;2023-05-23T06:39:39;67.40;;;34.70;;
20026;SDS011;10174;42.688;23.344;2023-05-23T06:42:04;69.90;;;32.65;;
20026;SDS011;10174;42.688;23.344;2023-05-23T06:44:30;58.83;;;31.92;;
20026;SDS011;10174;42.688;23.344;2023-05-23T06:46:55;63.88;;;31.80;;
20026;SDS011;10174;42.688;23.344;2023-05-23T06:49:22;67.07;;;33.20;;
20026;SDS011;10174;42.688;23.344;2023-05-23T06:51:48;63.10;;;32.92;;
20026;SDS011;10174;42.688;23.344;2023-05-23T06:54:14;69.80;;;33.28;;
20026;SDS011;10174;42.688;23.344;2023-05-23T06:56:39;72.13;;;35.30;;
20026;SDS011;10174;42.688;23.344;2023-05-23T06:59:05;66.32;;;33.95;;
20026;SDS011;10174;42.688;23.344;2023-05-23T07:01:30;81.40;;;35.85;;
20026;SDS011;10174;42.688;23.344;2023-05-23T07:03:55;70.30;;;34.92;;
20026;SDS011;10174;42.688;23.344;2023-05-23T07:06:21;70.30;;;33.60;;
20026;SDS011;10174;42.688;23.344;2023-05-23T07:08:46;67.70;;;34.80;;
20026;SDS011;10174;42.688;23.344;2023-05-23T07:11:12;64.22;;;32.83;;
20026;SDS011;10174;42.688;23.344;2023-05-23T07:13:37;75.22;;;34.63;;
20026;SDS011;10174;42.688;23.344;2023-05-23T07:16:02;69.50;;;33.83;;
20026;SDS011;10174;42.688;23.344;2023-05-23T07:18:28;81.43;;;34.85;;
20026;SDS011;10174;42.688;23.344;2023-05-23T07:20:54;75.93;;;36.08;;
20026;SDS011;10174;42.688;23.344;2023-05-23T07:23:21;74.35;;;34.03;;
20026;SDS011;10174;42.688;23.344;2023-05-23T07:25:47;70.65;;;33.42;;
20026;SDS011;10174;42.688;23.344;2023-05-23T07:28:12;75.85;;;36.42;;
20026;SDS011;10174;42.688;23.344;2023-05-23T07:30:38;69.65;;;35.35;;
20026;SDS011;10174;42.688;23.344;2023-05-23T07:33:03;77.18;;;37.03;;
20026;SDS011;10174;42.688;23.344;2023-05-23T07:35:29;84.50;;;39.83;;
20026;SDS011;10174;42.688;23.344;2023-05-23T07:37:54;75.53;;;35.22;;
20026;SDS011;10174;42.688;23.344;2023-05-23T07:40:20;79.47;;;35.83;;
20026;SDS011;10174;42.688;23.344;2023-05-23T07:42:46;67.70;;;36.03;;
20026;SDS011;10174;42.688;23.344;2023-05-23T07:45:11;67.05;;;34.47;;
20026;SDS011;10174;42.688;23.344;2023-05-23T07:47:37;65.70;;;34.67;;
20026;SDS011;10174;42.688;23.344;2023-05-23T07:50:03;69.65;;;34.83;;
20026;SDS011;10174;42.688;23.344;2023-05-23T07:52:29;66.72;;;33.65;;
20026;SDS011;10174;42.688;23.344;2023-05-23T07:54:56;68.57;;;35.10;;
20026;SDS011;10174;42.688;23.344;2023-05-23T07:57:21;63.60;;;33.60;;
20026;SDS011;10174;42.688;23.344;2023-05-23T07:59:48;78.50;;;39.38;;
20026;SDS011;10174;42.688;23.344;2023-05-23T08:02:14;80.22;;;39.55;;
20026;SDS011;10174;42.688;23.344;2023-05-23T08:04:39;60.67;;;34.10;;
20026;SDS011;10174;42.688;23.344;2023-05-23T08:07:04;65.78;;;33.83;;
20026;SDS011;10174;42.688;23.344;2023-05-23T08:09:32;76.70;;;35.92;;
20026;SDS011;10174;42.688;23.344;2023-05-23T08:11:57;77.03;;;40.50;;
20026;SDS011;10174;42.688;23.344;2023-05-23T08:14:23;57.85;;;32.13;;
20026;SDS011;10174;42.688;23.344;2023-05-23T08:16:48;63.28;;;31.67;;
20026;SDS011;10174;42.688;23.344;2023-05-23T08:19:13;54.50;;;29.27;;
20026;SDS011;10174;42.688;23.344;2023-05-23T08:21:39;53.03;;;27.30;;
20026;SDS011;10174;42.688;23.344;2023-05-23T08:24:05;48.45;;;27.10;;
20026;SDS011;10174;42.688;23.344;2023-05-23T08:26:30;41.58;;;23.33;;
20026;SDS011;10174;42.688;23.344;2023-05-23T08:28:59;36.67;;;23.30;;
20026;SDS011;10174;42.688;23.344;2023-05-23T08:31:26;39.25;;;21.42;;
20026;SDS011;10174;42.688;23.344;2023-05-23T08:33:52;38.10;;;20.35;;
20026;SDS011;10174;42.688;23.344;2023-05-23T08:36:17;32.75;;;19.58;;
20026;SDS011;10174;42.688;23.344;2023-05-23T08:38:43;44.80;;;19.92;;
20026;SDS011;10174;42.688;23.344;2023-05-23T08:41:11;33.53;;;18.80;;
20026;SDS011;10174;42.688;23.344;2023-05-23T08:43:43;26.77;;;17.77;;
20026;SDS011;10174;42.688;23.344;2023-05-23T08:46:08;34.35;;;16.42;;
20026;SDS011;10174;42.688;23.344;2023-05-23T08:48:34;32.80;;;14.52;;
20026;SDS011;10174;42.688;23.344;2023-05-23T08:51:02;21.05;;;13.68;;
20026;SDS011;10174;42.688;23.344;2023-05-23T08:53:28;22.85;;;12.27;;
20026;SDS011;10174;42.688;23.344;2023-05-23T08:55:56;19.42;;;12.20;;
20026;SDS011;10174;42.688;23.344;2023-05-23T08:58:26;28.65;;;13.25;;
20026;SDS011;10174;42.688;23.344;2023-05-23T09:00:54;20.92;;;13.05;;
20026;SDS011;10174;42.688;23.344;2023-05-23T09:03:21;17.50;;;11.45;;
20026;SDS011;10174;42.688;23.344;2023-05-23T09:05:47;25.77;;;12.75;;
20026;SDS011;10174;42.688;23.344;2023-05-23T09:08:13;20.92;;;12.38;;
20026;SDS011;10174;42.688;23.344;2023-05-23T09:10:40;22.67;;;12.02;;
20026;SDS011;10174;42.688;23.344;2023-05-23T09:13:06;23.60;;;13.82;;
20026;SDS011;10174;42.688;23.344;2023-05-23T09:15:31;25.45;;;11.70;;
20026;SDS011;10174;42.688;23.344;2023-05-23T09:18:00;14.48;;;9.55;;
20026;SDS011;10174;42.688;23.344;2023-05-23T09:20:28;21.00;;;11.07;;
20026;SDS011;10174;42.688;23.344;2023-05-23T09:22:54;16.77;;;10.13;;
20026;SDS011;10174;42.688;23.344;2023-05-23T09:25:20;16.63;;;10.10;;
20026;SDS011;10174;42.688;23.344;2023-05-23T09:27:46;14.90;;;8.93;;
20026;SDS011;10174;42.688;23.344;2023-05-23T09:30:11;17.85;;;7.88;;
20026;SDS011;10174;42.688;23.344;2023-05-23T09:32:37;18.90;;;8.70;;
20026;SDS011;10174;42.688;23.344;2023-05-23T09:35:04;12.00;;;5.22;;
20026;SDS011;10174;42.688;23.344;2023-05-23T09:37:34;11.77;;;6.00;;
20026;SDS011;10174;42.688;23.344;2023-05-23T09:40:08;18.38;;;7.28;;
20026;SDS011;10174;42.688;23.344;2023-05-23T09:42:34;13.35;;;6.85;;
20026;SDS011;10174;42.688;23.344;2023-05-23T09:45:01;13.27;;;6.70;;
20026;SDS011;10174;42.688;23.344;2023-05-23T09:47:27;17.08;;;7.05;;
20026;SDS011;10174;42.688;23.344;2023-05-23T09:49:52;14.70;;;6.40;;
20026;SDS011;10174;42.688;23.344;2023-05-23T09:52:18;13.13;;;5.82;;
20026;SDS011;10174;42.688;23.344;2023-05-23T09:54:46;19.33;;;8.38;;
20026;SDS011;10174;42.688;23.344;2023-05-23T09:57:13;65.40;;;25.38;;
20026;SDS011;10174;42.688;23.344;2023-05-23T09:59:41;26.83;;;11.30;;
20026;SDS011;10174;42.688;23.344;2023-05-23T10:02:15;16.60;;;7.63;;
20026;SDS011;10174;42.688;23.344;2023-05-23T10:04:41;15.55;;;6.85;;
20026;SDS011;10174;42.688;23.344;2023-05-23T10:07:13;15.15;;;6.68;;
20026;SDS011;10174;42.688;23.344;2023-05-23T10:09:52;10.90;;;4.55;;
20026;SDS011;10174;42.688;23.344;2023-05-23T10:12:38;7.85;;;4.55;;
20026;SDS011;10174;42.688;23.344;2023-05-23T10:15:12;13.40;;;5.75;;
20026;SDS011;10174;42.688;23.344;2023-05-23T10:17:56;11.85;;;6.00;;
20026;SDS011;10174;42.688;23.344;2023-05-23T10:20:27;10.13;;;5.47;;
20026;SDS011;10174;42.688;23.344;2023-05-23T10:22:57;10.68;;;5.57;;
20026;SDS011;10174;42.688;23.344;2023-05-23T10:25:23;9.90;;;4.50;;
20026;SDS011;10174;42.688;23.344;2023-05-23T10:27:52;8.70;;;3.72;;
20026;SDS011;10174;42.688;23.344;2023-05-23T10:30:26;9.10;;;3.83;;
20026;SDS011;10174;42.688;23.344;2023-05-23T10:32:53;6.53;;;3.92;;
20026;SDS011;10174;42.688;23.344;2023-05-23T10:35:26;18.50;;;12.50;;
20026;SDS011;10174;42.688;23.344;2023-05-23T10:43:26;9.55;;;3.53;;
20026;SDS011;10174;42.688;23.344;2023-05-23T10:45:57;10.95;;;4.13;;
20026;SDS011;10174;42.688;23.344;2023-05-23T10:48:31;14.80;;;5.85;;
20026;SDS011;10174;42.688;23.344;2023-05-23T10:51:06;12.18;;;4.20;;
20026;SDS011;10174;42.688;23.344;2023-05-23T10:53:39;12.77;;;4.28;;
20026;SDS011;10174;42.688;23.344;2023-05-23T10:56:10;10.25;;;4.10;;
20026;SDS011;10174;42.688;23.344;2023-05-23T10:58:46;13.27;;;5.43;;
20026;SDS011;10174;42.688;23.344;2023-05-23T11:01:17;5.32;;;3.72;;
20026;SDS011;10174;42.688;23.344;2023-05-23T11:09:17;9.13;;;3.75;;
20026;SDS011;10174;42.688;23.344;2023-05-23T11:12:00;13.23;;;4.45;;
20026;SDS011;10174;42.688;23.344;2023-05-23T11:17:17;12.90;;;3.83;;
20026;SDS011;10174;42.688;23.344;2023-05-23T11:19:57;7.00;;;3.77;;
20026;SDS011;10174;42.688;23.344;2023-05-23T11:22:30;13.93;;;4.28;;
20026;SDS011;10174;42.688;23.344;2023-05-23T11:24:57;6.88;;;3.90;;
20026;SDS011;10174;42.688;23.344;2023-05-23T11:27:33;7.35;;;4.43;;
20026;SDS011;10174;42.688;23.344;2023-05-23T11:32:31;5.82;;;4.22;;
20026;SDS011;10174;42.688;23.344;2023-05-23T11:35:01;9.38;;;4.20;;
20026;SDS011;10174;42.688;23.344;2023-05-23T11:37:28;10.68;;;4.28;;
20026;SDS011;10174;42.688;23.344;2023-05-23T11:39:54;8.20;;;4.18;;
20026;SDS011;10174;42.688;23.344;2023-05-23T11:42:20;13.18;;;4.97;;
20026;SDS011;10174;42.688;23.344;2023-05-23T11:44:49;8.77;;;3.80;;
20026;SDS011;10174;42.688;23.344;2023-05-23T11:47:15;9.30;;;4.93;;
20026;SDS011;10174;42.688;23.344;2023-05-23T11:49:42;11.38;;;5.32;;
20026;SDS011;10174;42.688;23.344;2023-05-23T11:52:10;15.02;;;9.93;;
20026;SDS011;10174;42.688;23.344;2023-05-23T11:54:35;15.10;;;5.45;;
20026;SDS011;10174;42.688;23.344;2023-05-23T11:57:01;9.50;;;4.78;;
20026;SDS011;10174;42.688;23.344;2023-05-23T11:59:27;15.65;;;7.90;;
20026;SDS011;10174;42.688;23.344;2023-05-23T12:01:53;12.23;;;4.47;;
20026;SDS011;10174;42.688;23.344;2023-05-23T12:04:19;8.70;;;3.92;;
20026;SDS011;10174;42.688;23.344;2023-05-23T12:06:46;12.75;;;5.60;;
20026;SDS011;10174;42.688;23.344;2023-05-23T12:09:12;9.32;;;5.35;;
20026;SDS011;10174;42.688;23.344;2023-05-23T12:11:39;8.80;;;5.53;;
20026;SDS011;10174;42.688;23.344;2023-05-23T12:14:05;11.25;;;4.63;;
20026;SDS011;10174;42.688;23.344;2023-05-23T12:16:32;8.65;;;4.63;;
20026;SDS011;10174;42.688;23.344;2023-05-23T12:18:58;11.70;;;4.82;;
20026;SDS011;10174;42.688;23.344;2023-05-23T12:21:25;11.50;;;5.53;;
20026;SDS011;10174;42.688;23.344;2023-05-23T12:23:51;15.32;;;5.70;;
20026;SDS011;10174;42.688;23.344;2023-05-23T12:26:17;9.52;;;4.65;;
20026;SDS011;10174;42.688;23.344;2023-05-23T12:28:43;8.65;;;4.38;;
20026;SDS011;10174;42.688;23.344;2023-05-23T12:31:14;17.40;;;8.82;;
20026;SDS011;10174;42.688;23.344;2023-05-23T12:33:45;7.00;;;4.25;;
20026;SDS011;10174;42.688;23.344;2023-05-23T12:36:12;11.00;;;4.32;;
20026;SDS011;10174;42.688;23.344;2023-05-23T12:38:46;10.07;;;5.55;;
20026;SDS011;10174;42.688;23.344;2023-05-23T12:41:12;8.63;;;4.40;;
20026;SDS011;10174;42.688;23.344;2023-05-23T12:43:47;14.02;;;7.97;;
20026;SDS011;10174;42.688;23.344;2023-05-23T12:46:14;11.27;;;3.97;;
20026;SDS011;10174;42.688;23.344;2023-05-23T12:48:40;10.43;;;4.95;;
20026;SDS011;10174;42.688;23.344;2023-05-23T12:51:05;12.98;;;4.15;;
20026;SDS011;10174;42.688;23.344;2023-05-23T12:53:31;9.55;;;4.55;;
20026;SDS011;10174;42.688;23.344;2023-05-23T12:55:56;9.60;;;4.00;;
20026;SDS011;10174;42.688;23.344;2023-05-23T12:58:21;9.90;;;4.10;;
20026;SDS011;10174;42.688;23.344;2023-05-23T13:00:47;7.63;;;4.82;;
20026;SDS011;10174;42.688;23.344;2023-05-23T13:03:13;16.42;;;8.60;;
20026;SDS011;10174;42.688;23.344;2023-05-23T13:05:38;8.82;;;5.95;;
20026;SDS011;10174;42.688;23.344;2023-05-23T13:08:03;10.80;;;4.45;;
20026;SDS011;10174;42.688;23.344;2023-05-23T13:10:29;11.25;;;4.30;;
20026;SDS011;10174;42.688;23.344;2023-05-23T13:12:54;8.25;;;4.22;;
20026;SDS011;10174;42.688;23.344;2023-05-23T13:15:19;14.30;;;4.05;;
20026;SDS011;10174;42.688;23.344;2023-05-23T13:17:45;9.30;;;5.00;;
20026;SDS011;10174;42.688;23.344;2023-05-23T13:20:11;10.80;;;4.00;;
20026;SDS011;10174;42.688;23.344;2023-05-23T13:22:38;14.25;;;8.05;;
20026;SDS011;10174;42.688;23.344;2023-05-23T13:25:05;9.15;;;4.40;;
20026;SDS011;10174;42.688;23.344;2023-05-23T13:27:32;18.23;;;7.47;;
20026;SDS011;10174;42.688;23.344;2023-05-23T13:29:58;7.20;;;4.35;;
20026;SDS011;10174;42.688;23.344;2023-05-23T13:32:23;7.22;;;3.97;;
20026;SDS011;10174;42.688;23.344;2023-05-23T13:34:49;8.93;;;4.20;;
20026;SDS011;10174;42.688;23.344;2023-05-23T13:37:14;11.07;;;4.97;;
20026;SDS011;10174;42.688;23.344;2023-05-23T13:39:40;11.02;;;5.40;;
20026;SDS011;10174;42.688;23.344;2023-05-23T13:42:05;15.32;;;4.85;;
20026;SDS011;10174;42.688;23.344;2023-05-23T13:44:31;6.82;;;3.80;;
20026;SDS011;10174;42.688;23.344;2023-05-23T13:47:05;9.85;;;4.13;;
20026;SDS011;10174;42.688;23.344;2023-05-23T13:57:03;7.30;;;3.58;;
20026;SDS011;10174;42.688;23.344;2023-05-23T13:59:29;6.43;;;3.70;;
20026;SDS011;10174;42.688;23.344;2023-05-23T14:01:55;9.77;;;4.60;;
20026;SDS011;10174;42.688;23.344;2023-05-23T14:04:20;9.27;;;6.05;;
20026;SDS011;10174;42.688;23.344;2023-05-23T14:06:47;10.73;;;5.45;;
20026;SDS011;10174;42.688;23.344;2023-05-23T14:09:12;12.32;;;6.82;;
20026;SDS011;10174;42.688;23.344;2023-05-23T14:11:37;9.63;;;4.10;;
20026;SDS011;10174;42.688;23.344;2023-05-23T14:14:03;6.70;;;4.00;;
20026;SDS011;10174;42.688;23.344;2023-05-23T14:16:29;9.18;;;4.50;;
20026;SDS011;10174;42.688;23.344;2023-05-23T14:18:55;9.23;;;3.92;;
20026;SDS011;10174;42.688;23.344;2023-05-23T14:21:20;11.82;;;5.18;;
20026;SDS011;10174;42.688;23.344;2023-05-23T14:23:46;7.15;;;3.97;;
20026;SDS011;10174;42.688;23.344;2023-05-23T14:26:11;5.50;;;3.70;;
20026;SDS011;10174;42.688;23.344;2023-05-23T14:28:37;8.10;;;4.18;;
20026;SDS011;10174;42.688;23.344;2023-05-23T14:31:02;10.13;;;4.32;;
20026;SDS011;10174;42.688;23.344;2023-05-23T14:33:28;12.27;;;3.60;;
20026;SDS011;10174;42.688;23.344;2023-05-23T14:35:53;9.52;;;5.95;;
20026;SDS011;10174;42.688;23.344;2023-05-23T14:38:19;9.25;;;4.20;;
20026;SDS011;10174;42.688;23.344;2023-05-23T14:40:44;28.38;;;16.92;;
20026;SDS011;10174;42.688;23.344;2023-05-23T14:43:11;9.60;;;4.03;;
20026;SDS011;10174;42.688;23.344;2023-05-23T14:45:36;6.40;;;4.07;;